Northfield, Wisconsin
Current Conditions -  °F | °C
As of 2:15 PM on Wednesday 28 Jan 2015 (Local Time) from KBCK Reporting Station
Overcast Overcast  
Wind Chill: 24°   Ceiling: 1100
Heat Index: 31°   Visibility: 7mi
Dew Point: 25°   Wind: 8mph
Humidity: 77%   Direction: 130°SE
Pressure: 29.93"   Gusts: NA
Location:  44.4032°N, 91.0577°W
Report Text: KBCK 282015Z AUTO 13007KT 7SM OVC011 00/M04 A2993 RMK AO2 T10051040
Loading
Personal Weather Stations






























Interactive Weather Map New forecast layout! Learn more

10-Day Weather Forecast

Advertisements
Track Severe Weather on mobile